Time;durP1;ratioP1;P1;durP2;ratioP2;P2;SDS_P1;SDS_P2;PMS_P1;PMS_P2;Temp;Humidity;BMP_temperature;BMP_pressure;BME280_temperature;BME280_humidity;BME280_pressure;Samples;Min_cycle;Max_cycle;Signal;HPM_P1;HPM_P2
2022/10/04 00:00:27;;;;;;;1.17;0.20;;;;;;;19.95;100.00;99973.88;7391395;19;20038;-58
2022/10/04 00:03:04;;;;;;;0.30;0.30;;;;;;;19.52;100.00;99976.81;7391987;19;20015;-58
2022/10/04 00:05:31;;;;;;;0.57;0.30;;;;;;;19.71;100.00;99980.41;7391279;19;20007;-59
2022/10/04 00:08:03;;;;;;;1.88;0.77;;;;;;;20.07;100.00;99973.19;7394361;19;20018;-58
2022/10/04 00:10:32;;;;;;;0.70;0.45;;;;;;;19.56;100.00;99983.69;7391525;19;20022;-58
2022/10/04 00:13:06;;;;;;;0.32;0.32;;;;;;;19.92;100.00;99981.38;7389758;19;20010;-59
2022/10/04 00:15:36;;;;;;;0.13;0.13;;;;;;;19.81;100.00;99980.78;7390822;19;20360;-58
2022/10/04 00:18:11;;;;;;;3.05;0.65;;;;;;;20.10;100.00;99957.19;7394187;19;20018;-59
2022/10/04 00:20:51;;;;;;;2.30;0.50;;;;;;;20.14;100.00;99944.25;7391235;19;20376;-59
2022/10/04 00:23:25;;;;;;;0.50;0.45;;;;;;;20.08;100.00;99949.25;7391470;19;20030;-58
2022/10/04 00:26:03;;;;;;;1.40;0.52;;;;;;;19.84;100.00;99951.47;7391680;19;20014;-58
2022/10/04 00:28:35;;;;;;;0.63;0.35;;;;;;;19.88;100.00;99958.28;7391066;19;20353;-58
2022/10/04 00:31:12;;;;;;;1.50;0.50;;;;;;;19.92;100.00;99952.34;7391076;19;20011;-59
2022/10/04 00:34:12;;;;;;;1.13;0.47;;;;;;;19.81;100.00;99935.56;7390440;19;20006;-58
2022/10/04 00:36:51;;;;;;;1.88;0.30;;;;;;;19.68;100.00;99928.53;7387781;19;20070;-59
2022/10/04 00:39:33;;;;;;;0.75;0.68;;;;;;;19.72;100.00;99922.59;7390680;19;20024;-59
2022/10/04 00:41:59;;;;;;;0.60;0.57;;;;;;;19.08;100.00;99927.31;7388237;19;20415;-59
2022/10/04 00:44:37;;;;;;;0.68;0.40;;;;;;;18.75;100.00;99922.81;7387315;19;20381;-59
2022/10/04 00:47:18;;;;;;;0.82;0.20;;;;;;;18.68;100.00;99920.63;7393338;19;20558;-59
2022/10/04 00:49:46;;;;;;;2.50;0.82;;;;;;;19.49;100.00;99910.84;7390567;19;20341;-59
2022/10/04 00:52:23;;;;;;;1.05;0.43;;;;;;;19.85;100.00;99907.75;7392387;19;20003;-58
2022/10/04 00:54:56;;;;;;;3.60;0.85;;;;;;;19.94;100.00;99904.50;7387935;19;20348;-58
2022/10/04 00:57:31;;;;;;;2.65;0.82;;;;;;;19.93;100.00;99906.56;7387907;19;20018;-58
2022/10/04 01:00:02;;;;;;;0.50;0.20;;;;;;;19.65;100.00;99906.25;7387854;19;20014;-58
2022/10/04 01:03:02;;;;;;;1.88;0.55;;;;;;;19.89;100.00;99902.53;7388380;19;20728;-58
2022/10/04 01:05:52;;;;;;;2.03;0.63;;;;;;;19.84;100.00;99895.66;7388771;19;20010;-58
2022/10/04 01:08:26;;;;;;;0.95;0.45;;;;;;;20.07;100.00;99893.25;7393760;19;20017;-58
2022/10/04 01:11:01;;;;;;;0.68;0.45;;;;;;;19.60;100.00;99876.78;7389792;19;20010;-58
2022/10/04 01:13:35;;;;;;;7.70;0.75;;;;;;;19.35;100.00;99874.59;7389738;19;20014;-58
2022/10/04 01:16:17;;;;;;;1.55;0.22;;;;;;;19.48;100.00;99864.16;7389580;19;20006;-58
2022/10/04 01:18:43;;;;;;;1.75;0.50;;;;;;;19.51;100.00;99857.41;7388972;19;20046;-58
2022/10/04 01:21:15;;;;;;;3.55;0.65;;;;;;;19.45;100.00;99844.66;7389073;19;20329;-58
2022/10/04 01:23:48;;;;;;;1.00;0.15;;;;;;;19.43;100.00;99830.31;7387582;19;20084;-58
2022/10/04 01:26:29;;;;;;;0.68;0.30;;;;;;;19.51;100.00;99843.28;7396869;19;20010;-59
2022/10/04 01:28:59;;;;;;;0.20;0.20;;;;;;;19.33;100.00;99846.88;7396396;19;20027;-58
2022/10/04 01:31:27;;;;;;;1.23;0.35;;;;;;;19.27;100.00;99837.75;7395995;19;20014;-58
2022/10/04 01:33:54;;;;;;;0.17;0.17;;;;;;;19.42;100.00;99828.81;7396063;19;20021;-58
2022/10/04 01:36:21;;;;;;;1.50;0.30;;;;;;;19.43;100.00;99816.97;7391541;19;20022;-58
2022/10/04 01:38:48;;;;;;;0.30;0.20;;;;;;;19.31;100.00;99826.13;7392862;19;20015;-58
2022/10/04 01:41:18;;;;;;;0.30;0.20;;;;;;;19.39;100.00;99825.00;7394163;19;20355;-58
2022/10/04 01:43:49;;;;;;;0.55;0.25;;;;;;;19.40;100.00;99828.59;7396106;19;20017;-58
2022/10/04 01:46:22;;;;;;;0.63;0.45;;;;;;;19.41;100.00;99828.03;7396968;19;20027;-58
2022/10/04 01:48:48;;;;;;;0.20;0.20;;;;;;;19.42;100.00;99832.41;7395707;19;20014;-58
2022/10/04 01:51:29;;;;;;;0.30;0.10;;;;;;;19.47;100.00;99827.94;7396622;19;20014;-58
2022/10/04 01:54:04;;;;;;;0.30;0.30;;;;;;;19.36;100.00;99811.94;7395991;19;20010;-58
2022/10/04 01:56:37;;;;;;;1.08;0.40;;;;;;;19.45;100.00;99808.72;7392933;19;20031;-58
2022/10/04 01:59:06;;;;;;;0.93;0.35;;;;;;;19.76;100.00;99809.22;7392494;19;20018;-58
2022/10/04 02:01:46;;;;;;;2.35;0.32;;;;;;;19.88;100.00;99804.91;7393845;19;20010;-58
2022/10/04 02:04:17;;;;;;;2.20;0.60;;;;;;;19.73;100.00;99804.69;7396140;19;20510;-59
2022/10/04 02:06:45;;;;;;;0.32;0.20;;;;;;;19.64;100.00;99798.13;7396780;19;20070;-59
2022/10/04 02:09:16;;;;;;;0.60;0.20;;;;;;;19.63;100.00;99793.00;7395535;19;20010;-59
2022/10/04 02:11:46;;;;;;;0.73;0.32;;;;;;;19.39;100.00;99795.97;7395866;19;20014;-59
2022/10/04 02:14:16;;;;;;;0.30;0.30;;;;;;;19.29;100.00;99784.31;7395688;19;20021;-59
2022/10/04 02:16:49;;;;;;;1.98;0.13;;;;;;;19.34;100.00;99786.28;7393823;19;21122;-59
2022/10/04 02:19:16;;;;;;;0.20;0.15;;;;;;;19.34;100.00;99774.22;7394781;19;20354;-59
2022/10/04 02:21:43;;;;;;;0.98;0.25;;;;;;;19.54;100.00;99774.41;7396878;19;20009;-59
2022/10/04 02:24:11;;;;;;;0.35;0.35;;;;;;;19.47;100.00;99772.22;7395922;19;20007;-59
2022/10/04 02:26:37;;;;;;;1.13;0.45;;;;;;;19.59;100.00;99772.78;7394558;19;20010;-59
2022/10/04 02:29:03;;;;;;;1.13;0.13;;;;;;;19.56;100.00;99768.97;7394760;19;20017;-59
2022/10/04 02:34:17;;;;;;;0.28;0.13;;;;;;;19.56;100.00;99762.56;7394350;19;20026;-59
2022/10/04 02:36:45;;;;;;;1.45;0.70;;;;;;;19.59;100.00;99759.44;7391383;19;20006;-59
2022/10/04 02:39:20;;;;;;;0.20;0.20;;;;;;;19.55;100.00;99752.56;7394430;19;20018;-59
2022/10/04 02:41:56;;;;;;;1.27;0.28;;;;;;;19.54;100.00;99737.69;7393850;19;20069;-58
2022/10/04 02:44:54;;;;;;;0.10;0.10;;;;;;;19.46;100.00;99728.34;7394431;19;20342;-58
2022/10/04 02:47:36;;;;;;;0.85;0.10;;;;;;;19.88;100.00;99714.47;7395669;19;20484;-58
2022/10/04 02:50:18;;;;;;;0.30;0.30;;;;;;;20.12;100.00;99717.09;7392947;19;20011;-59
2022/10/04 02:52:52;;;;;;;0.90;0.32;;;;;;;20.08;100.00;99713.78;7396620;19;20463;-59
2022/10/04 02:55:28;;;;;;;0.82;0.20;;;;;;;19.92;100.00;99715.69;7392433;19;20029;-59
2022/10/04 02:57:57;;;;;;;0.38;0.38;;;;;;;19.95;100.00;99722.28;7396773;19;20021;-59
2022/10/04 03:00:26;;;;;;;3.83;0.40;;;;;;;19.81;100.00;99723.59;7393341;19;20021;-59
2022/10/04 03:03:23;;;;;;;0.25;0.10;;;;;;;19.81;100.00;99717.94;7393758;19;20364;-59
2022/10/04 03:06:04;;;;;;;0.32;0.15;;;;;;;19.78;100.00;99707.72;7393300;19;20324;-59
2022/10/04 03:08:42;;;;;;;0.10;0.10;;;;;;;19.84;100.00;99714.03;7393576;19;20015;-59
2022/10/04 03:11:10;;;;;;;0.17;0.17;;;;;;;19.93;100.00;99719.25;7393304;19;20088;-59
2022/10/04 03:13:40;;;;;;;0.40;0.17;;;;;;;19.92;100.00;99712.06;7391543;19;20507;-59
2022/10/04 03:16:07;;;;;;;2.97;0.65;;;;;;;20.01;100.00;99714.47;7392349;19;20018;-59
2022/10/04 03:18:35;;;;;;;0.60;0.50;;;;;;;20.06;100.00;99707.94;7393497;19;20022;-59
2022/10/04 03:21:05;;;;;;;0.20;0.20;;;;;;;19.83;100.00;99715.34;7391449;19;20035;-59
2022/10/04 03:23:32;;;;;;;5.97;0.47;;;;;;;19.87;100.00;99712.94;7393708;19;20034;-59
2022/10/04 03:26:23;;;;;;;1.55;0.40;;;;;;;19.76;100.00;99708.25;7397137;19;20026;-59
2022/10/04 03:28:52;;;;;;;0.80;0.40;;;;;;;19.62;100.00;99709.56;7389051;19;20037;-58
2022/10/04 03:31:18;;;;;;;0.20;0.10;;;;;;;19.87;100.00;99718.59;7392139;19;20059;-59
2022/10/04 03:33:46;;;;;;;0.82;0.10;;;;;;;19.93;100.00;99711.53;7392141;19;20017;-59
2022/10/04 03:36:18;;;;;;;0.10;0.10;;;;;;;19.63;100.00;99711.84;7391791;19;20014;-59
2022/10/04 03:38:47;;;;;;;1.27;0.28;;;;;;;20.10;100.00;99714.00;7392753;19;20025;-59
2022/10/04 03:41:15;;;;;;;0.30;0.30;;;;;;;19.59;100.00;99702.94;7388703;19;20013;-59
2022/10/04 03:43:46;;;;;;;0.10;0.10;;;;;;;20.27;100.00;99708.81;7390305;19;20017;-59
2022/10/04 03:46:13;;;;;;;0.10;0.10;;;;;;;20.24;100.00;99695.75;7389679;19;20028;-59
2022/10/04 03:48:48;;;;;;;1.25;0.30;;;;;;;20.23;100.00;99688.56;7388665;19;20074;-59
2022/10/04 03:51:21;;;;;;;1.10;0.10;;;;;;;20.35;100.00;99687.03;7390599;19;20003;-59
2022/10/04 03:53:55;;;;;;;0.68;0.30;;;;;;;20.49;100.00;99682.13;7390070;19;20017;-59
2022/10/04 03:56:26;;;;;;;0.43;0.20;;;;;;;20.12;100.00;99683.88;7388912;19;20010;-59
2022/10/04 03:58:53;;;;;;;0.10;0.10;;;;;;;20.62;100.00;99671.50;7390011;19;20337;-59
2022/10/04 04:01:43;;;;;;;0.63;0.40;;;;;;;20.55;100.00;99675.03;7389550;19;20014;-59
2022/10/04 04:04:30;;;;;;;2.97;0.47;;;;;;;20.27;100.00;99666.41;7388461;19;20031;-59
2022/10/04 04:07:12;;;;;;;0.20;0.20;;;;;;;20.18;100.00;99666.81;7390101;19;20466;-59
2022/10/04 04:09:44;;;;;;;0.75;0.20;;;;;;;20.45;100.00;99659.81;7391991;19;20010;-59
2022/10/04 04:12:17;;;;;;;0.55;0.40;;;;;;;20.38;100.00;99664.06;7392458;19;20010;-59
2022/10/04 04:14:47;;;;;;;0.35;0.20;;;;;;;20.30;100.00;99670.94;7391448;19;20017;-68
2022/10/04 04:17:26;;;;;;;0.20;0.10;;;;;;;20.18;100.00;99658.34;7391685;19;20023;-68
2022/10/04 04:20:02;;;;;;;1.48;0.40;;;;;;;20.14;100.00;99655.09;7392403;19;20480;-67
2022/10/04 04:22:30;;;;;;;0.10;0.10;;;;;;;20.22;100.00;99653.13;7392305;19;20011;-59
2022/10/04 04:25:00;;;;;;;1.00;0.30;;;;;;;20.40;100.00;99646.53;7395770;19;20347;-59
2022/10/04 04:27:30;;;;;;;0.38;0.28;;;;;;;20.59;100.00;99647.16;7394904;19;20337;-67
2022/10/04 04:29:59;;;;;;;0.57;0.22;;;;;;;20.85;100.00;99651.94;7393154;19;20014;-67
2022/10/04 04:32:35;;;;;;;0.90;0.40;;;;;;;20.33;100.00;99642.34;7392961;19;20482;-59
2022/10/04 04:35:07;;;;;;;0.10;0.10;;;;;;;20.18;100.00;99635.72;7392585;19;20459;-67
2022/10/04 04:37:35;;;;;;;0.10;0.10;;;;;;;19.89;100.00;99648.16;7395749;19;20332;-68
2022/10/04 04:40:31;;;;;;;0.98;0.40;;;;;;;20.17;100.00;99639.84;7233669;19;3126377;-59
2022/10/04 04:43:01;;;;;;;1.27;0.40;;;;;;;20.09;100.00;99639.00;7391584;19;20460;-68
2022/10/04 04:45:30;;;;;;;0.25;0.25;;;;;;;20.17;100.00;99645.50;7393128;19;20011;-68
2022/10/04 04:47:58;;;;;;;2.92;0.30;;;;;;;19.91;100.00;99645.53;7396272;19;20015;-67
2022/10/04 04:50:28;;;;;;;0.75;0.17;;;;;;;19.70;100.00;99633.38;7393299;19;20034;-67
2022/10/04 04:53:03;;;;;;;0.10;0.10;;;;;;;19.86;100.00;99618.16;7391807;19;20011;-67
2022/10/04 04:55:36;;;;;;;1.85;0.20;;;;;;;19.90;100.00;99627.06;7391093;19;20013;-68
2022/10/04 04:58:03;;;;;;;0.30;0.10;;;;;;;20.59;100.00;99629.41;7390276;19;20007;-67
2022/10/04 05:00:36;;;;;;;0.85;0.73;;;;;;;21.21;100.00;99627.34;7389210;19;20021;-67
2022/10/04 05:03:06;;;;;;;1.98;0.73;;;;;;;21.09;100.00;99626.13;7389783;19;20010;-67
2022/10/04 05:05:34;;;;;;;0.10;0.00;;;;;;;20.83;100.00;99644.00;7390327;19;20388;-67
2022/10/04 05:08:27;;;;;;;0.10;0.10;;;;;;;20.75;100.00;99636.72;7392841;19;20025;-67
2022/10/04 05:10:56;;;;;;;0.50;0.50;;;;;;;20.78;100.00;99641.28;7389350;19;20372;-67
2022/10/04 05:13:31;;;;;;;5.90;1.05;;;;;;;20.82;100.00;99642.47;7389667;19;20017;-67
2022/10/04 05:15:57;;;;;;;0.30;0.10;;;;;;;20.79;100.00;99649.22;7388820;19;20014;-67
2022/10/04 05:18:30;;;;;;;0.10;0.10;;;;;;;20.89;100.00;99644.63;7392435;19;20772;-68
2022/10/04 05:21:03;;;;;;;0.65;0.20;;;;;;;20.62;100.00;99634.72;7388996;19;20011;-67
2022/10/04 05:23:29;;;;;;;1.15;0.40;;;;;;;20.93;100.00;99628.03;7389318;19;20018;-67
2022/10/04 05:25:59;;;;;;;0.45;0.17;;;;;;;20.95;100.00;99628.25;7391564;19;20014;-68
2022/10/04 05:28:25;;;;;;;1.50;0.30;;;;;;;21.26;100.00;99617.19;7393647;19;20011;-67
2022/10/04 05:31:06;;;;;;;0.95;0.20;;;;;;;21.27;100.00;99613.06;7389863;19;20010;-67
2022/10/04 05:33:44;;;;;;;0.75;0.20;;;;;;;21.32;100.00;99609.31;7389779;19;20014;-67
2022/10/04 05:36:10;;;;;;;0.25;0.25;;;;;;;21.37;100.00;99600.66;7386561;19;20021;-65
2022/10/04 05:38:56;;;;;;;6.28;0.60;;;;;;;21.35;100.00;99599.69;7386750;19;20744;-66
2022/10/04 05:41:31;;;;;;;0.52;0.20;;;;;;;21.40;100.00;99608.03;7388415;19;20010;-66
2022/10/04 05:43:57;;;;;;;0.50;0.10;;;;;;;21.51;100.00;99593.56;7389230;19;20015;-67
2022/10/04 05:46:34;;;;;;;0.25;0.25;;;;;;;20.90;100.00;99603.66;7389378;19;20014;-67
2022/10/04 05:49:10;;;;;;;1.55;0.35;;;;;;;20.35;100.00;99610.69;7389365;19;20014;-67
2022/10/04 05:51:53;;;;;;;1.35;0.40;;;;;;;20.71;100.00;99602.34;7389366;19;20503;-67
2022/10/04 05:54:22;;;;;;;0.20;0.10;;;;;;;20.95;100.00;99605.59;7389146;19;20359;-67
2022/10/04 05:57:14;;;;;;;1.05;0.30;;;;;;;20.81;100.00;99589.25;7387258;19;20494;-67
2022/10/04 06:00:14;;;;;;;0.68;0.30;;;;;;;20.99;100.00;99597.50;7387912;19;20026;-67
2022/10/04 06:02:53;;;;;;;0.55;0.52;;;;;;;20.84;100.00;99571.91;7388233;19;20015;-67
2022/10/04 06:05:27;;;;;;;3.50;0.68;;;;;;;21.01;100.00;99588.44;7387971;19;20602;-67
2022/10/04 06:08:07;;;;;;;2.88;0.95;;;;;;;21.05;100.00;99574.75;7391357;19;20018;-67
2022/10/04 06:10:56;;;;;;;1.95;0.32;;;;;;;20.72;100.00;99576.34;7388857;19;20084;-67
2022/10/04 06:14:03;;;;;;;5.57;0.90;;;;;;;20.57;100.00;99570.53;7394857;19;20341;-67
2022/10/04 06:17:01;;;;;;;3.08;0.63;;;;;;;20.71;100.00;99571.97;7391683;19;20023;-68
2022/10/04 06:19:49;;;;;;;0.50;0.50;;;;;;;20.66;100.00;99566.47;7394650;19;20007;-67
2022/10/04 06:22:19;;;;;;;0.30;0.30;;;;;;;20.75;100.00;99569.56;7397944;19;20010;-68
2022/10/04 06:24:51;;;;;;;1.85;0.17;;;;;;;20.84;100.00;99571.91;7396921;19;20387;-67
2022/10/04 06:27:21;;;;;;;2.60;0.60;;;;;;;20.83;100.00;99569.63;7396587;19;20134;-67
2022/10/04 06:29:57;;;;;;;0.10;0.00;;;;;;;20.79;100.00;99578.47;7395084;19;20499;-67
2022/10/04 06:32:54;;;;;;;1.15;0.40;;;;;;;20.77;100.00;99566.94;7394378;19;20055;-67
2022/10/04 06:35:41;;;;;;;2.55;0.65;;;;;;;21.07;100.00;99561.53;7394407;19;20369;-67
2022/10/04 06:38:25;;;;;;;1.10;0.63;;;;;;;20.68;100.00;99567.41;7398377;19;20011;-67
2022/10/04 06:40:53;;;;;;;1.15;0.10;;;;;;;20.84;100.00;99571.91;7395367;19;20018;-67
2022/10/04 06:43:34;;;;;;;0.60;0.20;;;;;;;20.95;100.00;99562.38;7395878;19;20647;-68
2022/10/04 06:46:25;;;;;;;1.55;0.50;;;;;;;20.73;100.00;99560.88;7396461;19;20006;-67
2022/10/04 06:49:17;;;;;;;3.40;0.50;;;;;;;20.77;100.00;99555.63;7394227;19;20090;-67
2022/10/04 06:51:49;;;;;;;0.85;0.57;;;;;;;20.97;100.00;99571.81;7393977;19;20015;-67
2022/10/04 06:54:19;;;;;;;1.55;0.47;;;;;;;21.05;100.00;99572.66;7394007;19;20409;-67
2022/10/04 06:56:59;;;;;;;1.67;0.38;;;;;;;21.17;100.00;99581.63;7392245;19;20417;-67
2022/10/04 06:59:52;;;;;;;0.35;0.22;;;;;;;21.32;100.00;99587.41;7392589;19;20014;-67
2022/10/04 07:02:25;;;;;;;2.67;0.50;;;;;;;21.31;100.00;99582.31;7393041;19;20095;-67
2022/10/04 07:04:51;;;;;;;0.70;0.10;;;;;;;21.48;100.00;99565.59;7393600;19;20072;-67
2022/10/04 07:07:23;;;;;;;0.25;0.15;;;;;;;21.55;100.00;99559.22;7394995;19;20018;-67
2022/10/04 07:10:05;;;;;;;2.65;0.43;;;;;;;21.54;100.00;99560.53;7391861;19;20014;-67
2022/10/04 07:12:38;;;;;;;8.23;0.55;;;;;;;21.53;100.00;99551.25;7393343;19;20367;-67
2022/10/04 07:15:16;;;;;;;0.45;0.38;;;;;;;20.99;100.00;99559.94;7393122;19;20494;-67
2022/10/04 07:17:45;;;;;;;0.10;0.05;;;;;;;21.51;100.00;99555.97;7395594;19;20341;-67
2022/10/04 07:20:34;;;;;;;0.63;0.57;;;;;;;21.26;100.00;99547.16;7396393;19;20032;-68
2022/10/04 07:23:05;;;;;;;0.47;0.17;;;;;;;21.48;100.00;99540.09;7393415;19;20360;-67
2022/10/04 07:25:47;;;;;;;3.30;0.63;;;;;;;21.05;100.00;99546.44;7393797;19;20713;-68
2022/10/04 07:31:12;;;;;;;0.85;0.60;;;;;;;21.64;100.00;99550.16;7392801;19;20018;-67
2022/10/04 07:33:53;;;;;;;0.85;0.20;;;;;;;21.23;100.00;99553.16;7391480;19;20014;-67
2022/10/04 07:36:40;;;;;;;2.80;0.40;;;;;;;21.69;100.00;99552.09;7391685;19;20010;-68
2022/10/04 07:39:14;;;;;;;3.92;0.38;;;;;;;21.95;100.00;99557.53;7390189;19;20014;-67
2022/10/04 07:41:53;;;;;;;0.98;0.60;;;;;;;21.66;100.00;99548.31;7390913;19;20116;-67
2022/10/04 07:44:39;;;;;;;0.25;0.20;;;;;;;21.51;100.00;99550.28;7391070;19;20086;-68
2022/10/04 07:47:05;;;;;;;0.25;0.10;;;;;;;21.59;100.00;99542.59;7392241;19;20070;-68
2022/10/04 07:49:38;;;;;;;0.30;0.30;;;;;;;22.26;100.00;99538.53;7391744;19;20007;-67
2022/10/04 07:52:04;;;;;;;1.20;0.15;;;;;;;22.14;100.00;99543.00;7393475;19;20356;-67
2022/10/04 07:54:40;;;;;;;0.57;0.10;;;;;;;22.22;100.00;99547.38;7390603;19;20011;-68
2022/10/04 07:57:48;;;;;;;0.32;0.32;;;;;;;21.87;100.00;99553.91;7392559;19;20024;-67
2022/10/04 08:00:20;;;;;;;3.08;0.50;;;;;;;21.86;100.00;99555.22;7391656;19;20106;-67
2022/10/04 08:03:20;;;;;;;2.75;0.35;;;;;;;21.41;100.00;99552.13;7392032;19;20011;-68
2022/10/04 08:06:26;;;;;;;1.13;0.17;;;;;;;22.16;100.00;99555.31;7392182;19;20015;-68
2022/10/04 08:09:01;;;;;;;0.30;0.30;;;;;;;22.24;100.00;99550.41;7389716;19;20035;-67
2022/10/04 08:11:47;;;;;;;1.45;0.40;;;;;;;22.40;100.00;99551.97;7389794;19;20048;-67
2022/10/04 08:14:32;;;;;;;0.57;0.20;;;;;;;22.15;100.00;99541.72;7391019;19;20088;-67
2022/10/04 08:17:27;;;;;;;0.10;0.10;;;;;;;22.32;100.00;99541.94;7391692;19;20021;-67
2022/10/04 08:20:13;;;;;;;1.65;0.30;;;;;;;22.49;100.00;99542.16;7391748;19;20013;-66
2022/10/04 08:23:04;;;;;;;0.10;0.10;;;;;;;22.73;100.00;99529.50;7394248;19;20015;-67
2022/10/04 08:25:36;;;;;;;;;;;;;;;22.95;100.00;99523.84;7394068;19;20013;-66
2022/10/04 08:31:12;;;;;;;0.20;0.20;;;;;;;19.52;100.00;99519.19;7389906;19;20038;-66
2022/10/04 08:34:00;;;;;;;2.28;0.20;;;;;;;16.90;100.00;99534.22;7388696;19;20410;-67
2022/10/04 08:36:32;;;;;;;1.95;0.10;;;;;;;16.64;100.00;99535.50;7389308;19;20018;-67
2022/10/04 08:38:59;;;;;;;0.10;0.10;;;;;;;16.52;100.00;99534.03;7389402;19;20011;-67
2022/10/04 08:41:41;;;;;;;0.10;0.00;;;;;;;16.73;100.00;99530.81;7388743;19;20648;-66
2022/10/04 08:44:42;;;;;;;0.20;0.10;;;;;;;16.89;100.00;99527.09;7388922;19;20031;-66
2022/10/04 08:47:20;;;;;;;0.65;0.20;;;;;;;16.62;100.00;99532.44;7392119;19;20073;-67
2022/10/04 08:50:02;;;;;;;0.40;0.20;;;;;;;16.84;100.00;99522.25;7388991;19;20355;-67
2022/10/04 08:52:57;;;;;;;0.52;0.20;;;;;;;17.21;100.00;99525.19;7393120;19;20015;-66
2022/10/04 08:55:33;;;;;;;0.22;0.20;;;;;;;18.09;100.00;99526.84;7388244;19;20043;-66
2022/10/04 08:58:14;;;;;;;0.45;0.10;;;;;;;18.61;100.00;99508.59;7394340;19;20021;-68
2022/10/04 09:00:45;;;;;;;;;;;;;;;19.20;100.00;99498.78;7390950;19;20337;-67
2022/10/04 09:03:33;;;;;;;0.55;0.15;;;;;;;19.29;100.00;99496.28;7388246;19;19918;-67
2022/10/04 09:06:35;;;;;;;0.10;0.10;;;;;;;19.86;100.00;99505.84;7389726;19;20428;-68
2022/10/04 09:09:19;;;;;;;2.72;0.13;;;;;;;21.16;100.00;99508.56;7391220;19;20027;-67
2022/10/04 09:12:10;;;;;;;2.60;0.20;;;;;;;21.43;100.00;99496.44;7392943;19;20011;-68
2022/10/04 09:14:55;;;;;;;0.20;0.00;;;;;;;22.79;100.00;99485.41;7391424;19;20010;-68
2022/10/04 09:17:25;;;;;;;0.65;0.10;;;;;;;22.70;100.00;99505.09;7389852;19;20516;-68
2022/10/04 09:20:10;;;;;;;2.20;0.10;;;;;;;23.02;100.00;99508.09;7392030;19;20023;-68
2022/10/04 09:22:47;;;;;;;0.28;0.03;;;;;;;22.58;100.00;99510.38;7390637;19;20374;-68
2022/10/04 09:25:26;;;;;;;0.47;0.38;;;;;;;22.88;100.00;99509.63;7390949;19;20046;-68
2022/10/04 09:28:15;;;;;;;2.13;0.47;;;;;;;22.96;100.00;99519.66;7392529;19;20014;-67
2022/10/04 09:31:07;;;;;;;0.47;0.10;;;;;;;23.37;100.00;99518.47;7388388;19;20021;-68
2022/10/04 09:33:57;;;;;;;1.80;0.13;;;;;;;23.40;100.00;99520.16;7386978;19;20015;-67
2022/10/04 09:37:06;;;;;;;0.25;0.00;;;;;;;23.64;100.00;99511.00;7386756;19;20010;-67
2022/10/04 09:39:44;;;;;;;0.10;0.10;;;;;;;23.78;100.00;99509.41;7384870;19;20387;-68
2022/10/04 09:42:46;;;;;;;0.25;0.20;;;;;;;23.89;100.00;99508.97;7387784;19;20018;-67
2022/10/04 09:45:53;;;;;;;0.00;0.00;;;;;;;23.57;100.00;99506.09;7388916;19;20027;-67
2022/10/04 09:48:34;;;;;;;0.55;0.30;;;;;;;23.27;100.00;99498.38;7393105;19;20014;-66
2022/10/04 09:51:29;;;;;;;0.10;0.10;;;;;;;23.58;100.00;99496.22;7396611;19;20503;-67
2022/10/04 09:54:29;;;;;;;0.40;0.20;;;;;;;23.13;100.00;99490.66;7395407;19;20377;-67
2022/10/04 09:57:33;;;;;;;0.30;0.15;;;;;;;22.64;100.00;99479.72;7395314;19;20031;-66
2022/10/04 10:00:09;;;;;;;0.00;0.00;;;;;;;23.05;100.00;99492.75;7394010;19;20014;-66
2022/10/04 10:03:11;;;;;;;0.70;0.10;;;;;;;23.17;100.00;99480.41;7394991;19;20636;-67
2022/10/04 10:06:06;;;;;;;0.43;0.32;;;;;;;23.35;100.00;99489.84;7393345;19;20030;-68
2022/10/04 10:13:38;;;;;;;0.10;0.00;;;;;;;23.08;100.00;99488.78;7397888;19;20042;-58
2022/10/04 10:15:46;;;;;;;0.20;0.20;;;;;;;22.77;100.00;99475.94;7396141;19;20050;-59
2022/10/04 10:18:33;;;;;;;0.38;0.38;;;;;;;22.87;100.00;99479.72;7398132;19;20451;-59
2022/10/04 10:21:20;;;;;;;0.17;0.10;;;;;;;22.44;100.00;99480.63;7396578;19;20014;-59
2022/10/04 10:24:17;;;;;;;1.75;0.50;;;;;;;22.89;100.00;99477.06;7395278;19;20019;-59
2022/10/04 10:26:56;;;;;;;1.45;0.10;;;;;;;23.12;100.00;99461.50;7396646;19;20006;-59
2022/10/04 10:29:50;;;;;;;0.63;0.17;;;;;;;23.10;100.00;99466.22;7393932;19;20095;-59
2022/10/04 10:32:25;;;;;;;0.90;0.10;;;;;;;23.09;100.00;99476.06;7394768;19;20007;-59
2022/10/04 10:35:25;;;;;;;2.72;0.30;;;;;;;22.94;100.00;99474.03;7392861;19;20006;-60
2022/10/04 10:38:02;;;;;;;0.20;0.20;;;;;;;22.66;100.00;99462.13;7398216;19;20010;-59
2022/10/04 10:40:43;;;;;;;3.83;0.73;;;;;;;23.13;100.00;99462.25;7394483;19;20062;-59
2022/10/04 10:43:16;;;;;;;0.32;0.13;;;;;;;23.13;100.00;99456.56;7394272;19;20015;-59
2022/10/04 10:45:51;;;;;;;0.40;0.40;;;;;;;22.83;100.00;99456.59;7394422;19;20014;-59
2022/10/04 10:48:32;;;;;;;0.47;0.47;;;;;;;22.96;100.00;99459.25;7397356;19;20049;-60
2022/10/04 10:51:44;;;;;;;1.08;0.20;;;;;;;23.36;100.00;99457.28;7393744;19;20030;-60
2022/10/04 10:54:47;;;;;;;1.73;0.38;;;;;;;23.23;100.00;99461.09;7391574;19;20007;-59
2022/10/04 10:57:34;;;;;;;5.80;0.85;;;;;;;23.54;100.00;99467.41;7393554;19;20021;-58
2022/10/04 11:00:20;;;;;;;0.10;0.10;;;;;;;23.25;100.00;99469.03;7394189;19;20043;-59
2022/10/04 11:03:24;;;;;;;1.95;0.47;;;;;;;23.42;100.00;99466.34;7393893;19;20015;-59
2022/10/04 11:06:02;;;;;;;3.15;0.47;;;;;;;23.37;100.00;99463.72;7392731;19;20015;-58
2022/10/04 11:08:50;;;;;;;0.32;0.10;;;;;;;23.59;100.00;99463.63;7393338;19;20042;-58
2022/10/04 11:11:41;;;;;;;0.90;0.35;;;;;;;23.83;100.00;99451.56;7393584;19;20015;-59
2022/10/04 11:14:39;;;;;;;0.30;0.20;;;;;;;23.57;100.00;99449.22;7393430;19;20014;-59
2022/10/04 11:17:27;;;;;;;0.75;0.20;;;;;;;23.86;100.00;99458.94;7393076;19;20028;-59
2022/10/04 11:20:12;;;;;;;1.48;0.45;;;;;;;23.20;100.00;99455.78;7392416;19;20729;-59
2022/10/04 11:23:19;;;;;;;0.70;0.43;;;;;;;23.09;100.00;99456.19;7393550;19;20140;-59
2022/10/04 11:26:07;;;;;;;6.70;0.85;;;;;;;23.45;100.00;99459.53;7395825;19;20011;-59
2022/10/04 11:28:48;;;;;;;1.75;0.28;;;;;;;23.40;100.00;99462.56;7393066;19;20014;-58
2022/10/04 11:31:53;;;;;;;0.40;0.30;;;;;;;23.03;100.00;99455.63;7392912;19;20490;-59
2022/10/04 11:34:47;;;;;;;1.17;0.57;;;;;;;22.92;100.00;99453.97;7392406;19;20023;-59
2022/10/04 11:37:40;;;;;;;0.10;0.10;;;;;;;22.83;100.00;99448.09;7394118;19;20046;-59
2022/10/04 11:40:08;;;;;;;0.63;0.45;;;;;;;23.09;100.00;99444.81;7392503;19;20015;-59
2022/10/04 11:42:53;;;;;;;1.00;0.10;;;;;;;23.22;100.00;99430.38;7391284;19;20352;-60
2022/10/04 11:45:41;;;;;;;0.28;0.10;;;;;;;23.48;100.00;99429.16;7391752;19;20026;-60
2022/10/04 11:48:25;;;;;;;1.08;0.00;;;;;;;23.55;100.00;99434.06;7395951;19;20392;-59
2022/10/04 11:51:13;;;;;;;2.03;0.47;;;;;;;23.70;100.00;99437.59;7391382;19;20026;-59
2022/10/04 11:53:54;;;;;;;0.63;0.32;;;;;;;23.89;100.00;99437.84;7390948;19;20486;-60
2022/10/04 11:56:20;;;;;;;;;;;;;;;24.04;100.00;99440.63;7391679;19;20508;-60
2022/10/04 11:59:28;;;;;;;1.27;0.50;;;;;;;24.16;100.00;99431.63;7390273;19;19974;-60
2022/10/04 12:02:09;;;;;;;2.30;0.20;;;;;;;24.48;100.00;99425.88;7386842;19;20035;-60
2022/10/04 12:05:06;;;;;;;3.67;0.70;;;;;;;24.45;100.00;99418.50;7389720;19;20007;-60
2022/10/04 12:08:09;;;;;;;1.02;0.28;;;;;;;24.28;100.00;99401.41;7393000;19;20014;-60
2022/10/04 12:10:38;;;;;;;0.55;0.28;;;;;;;24.01;100.00;99418.25;7389191;19;20007;-59
2022/10/04 12:13:32;;;;;;;5.07;0.40;;;;;;;24.01;100.00;99423.94;7389059;19;20035;-59
2022/10/04 12:16:18;;;;;;;3.72;0.20;;;;;;;23.97;100.00;99435.72;7389283;19;20015;-59
2022/10/04 12:19:26;;;;;;;2.05;0.10;;;;;;;23.64;100.00;99434.22;7391405;19;20018;-59
2022/10/04 12:21:59;;;;;;;0.75;0.43;;;;;;;23.52;100.00;99427.44;7386387;19;20038;-59
2022/10/04 12:24:50;;;;;;;0.10;0.00;;;;;;;23.66;100.00;99433.63;7392436;19;20039;-59
2022/10/04 12:27:16;;;;;;;;;;;;;;;23.80;100.00;99444.16;7394076;19;20014;-59
2022/10/04 12:30:01;;;;;;;1.75;0.17;;;;;;;23.39;100.00;99449.69;7390487;19;19935;-59
2022/10/04 12:32:42;;;;;;;6.53;1.17;;;;;;;23.23;100.00;99448.97;7389904;19;20562;-59
2022/10/04 12:35:44;;;;;;;0.88;0.15;;;;;;;23.24;100.00;99441.94;7390998;19;20456;-60